Time,TemperatureF,DewpointF,PressureIn,WindDirection,WindDirectionDegrees,WindSpeedMPH,WindSpeedGustMPH,Humidity,HourlyPrecipIn,Conditions,Clouds,dailyrainin,SoftwareType,DateUTC
2013-03-02 00:11:00,24.6,18.4,30.27,NW,315,3.6,3.6,77,0.00,,,0.00,WUHU216WMR200,2013-03-02 06:11:00,
2013-03-02 00:26:00,24.6,18.4,30.30,NW,315,3.6,3.6,77,0.00,,,0.00,WUHU216WMR200,2013-03-02 06:26:00,
2013-03-02 00:41:00,24.4,18.2,30.30,NW,315,3.6,3.6,77,0.00,,,0.00,WUHU216WMR200,2013-03-02 06:41:00,
2013-03-02 00:56:00,24.4,18.2,30.30,NW,315,3.6,3.6,77,0.00,,,0.00,WUHU216WMR200,2013-03-02 06:56:00,
2013-03-02 01:11:00,24.4,17.3,30.30,NW,315,3.6,3.6,74,0.00,,,0.00,WUHU216WMR200,2013-03-02 07:11:00,
2013-03-02 01:26:00,24.3,16.9,30.30,NW,315,3.6,3.6,73,0.00,,,0.00,WUHU216WMR200,2013-03-02 07:26:00,
2013-03-02 01:41:00,24.4,15.4,30.30,NW,315,3.6,3.6,68,0.00,,,0.00,WUHU216WMR200,2013-03-02 07:41:00,
2013-03-02 01:56:00,24.3,16.3,30.30,NW,315,3.6,3.6,71,0.00,,,0.00,WUHU216WMR200,2013-03-02 07:56:00,
2013-03-02 02:11:00,24.1,16.7,30.30,NW,315,3.6,3.6,73,0.00,,,0.00,WUHU216WMR200,2013-03-02 08:11:00,
2013-03-02 02:26:00,23.9,16.2,30.27,NW,315,3.6,3.6,72,0.00,,,0.00,WUHU216WMR200,2013-03-02 08:26:00,
2013-03-02 02:41:00,24.1,15.8,30.27,NW,315,3.6,3.6,70,0.00,,,0.00,WUHU216WMR200,2013-03-02 08:41:00,
2013-03-02 03:02:00,27.3,21.9,30.12,North,0,3.6,3.6,80,0.00,,,0.00,WUHU216WMR200,2013-03-02 09:02:00,
2013-03-02 04:26:00,23.0,12.7,30.27,NW,315,3.6,3.6,64,0.00,,,0.00,WUHU216WMR200,2013-03-02 10:26:00,
2013-03-02 04:41:00,22.8,12.5,30.30,NW,315,3.6,3.6,64,0.00,,,0.00,WUHU216WMR200,2013-03-02 10:41:00,
2013-03-02 04:56:00,22.5,12.2,30.30,NW,315,3.6,3.6,64,0.00,,,0.00,WUHU216WMR200,2013-03-02 10:56:00,
2013-03-02 05:11:00,22.3,12.0,30.30,NW,315,3.6,3.6,64,0.00,,,0.00,WUHU216WMR200,2013-03-02 11:11:00,
2013-03-02 05:26:00,22.3,11.7,30.33,NW,315,3.6,3.6,63,0.00,,,0.00,WUHU216WMR200,2013-03-02 11:26:00,
2013-03-02 05:41:00,21.9,11.3,30.30,NW,315,3.6,3.6,63,0.00,,,0.00,WUHU216WMR200,2013-03-02 11:41:00,
2013-03-02 05:56:00,21.9,11.3,30.27,NW,315,3.6,3.6,63,0.00,,,0.00,WUHU216WMR200,2013-03-02 11:56:00,
2013-03-02 06:11:00,21.7,11.1,30.27,NW,315,3.6,3.6,63,0.00,,,0.00,WUHU216WMR200,2013-03-02 12:11:00,
2013-03-02 06:26:00,21.7,11.4,30.30,NW,315,3.6,3.6,64,0.00,,,0.00,WUHU216WMR200,2013-03-02 12:26:00,
2013-03-02 06:41:00,21.6,11.3,30.27,NW,315,3.6,3.6,64,0.00,,,0.00,WUHU216WMR200,2013-03-02 12:41:00,
2013-03-02 06:56:00,21.6,11.3,30.30,NW,315,3.6,3.6,64,0.00,,,0.00,WUHU216WMR200,2013-03-02 12:56:00,
2013-03-02 07:11:00,21.7,11.1,30.30,NW,315,3.6,3.6,63,0.00,,,0.00,WUHU216WMR200,2013-03-02 13:11:00,
2013-03-02 07:26:00,22.1,11.8,30.30,NW,315,1.3,1.3,64,0.00,,,0.00,WUHU216WMR200,2013-03-02 13:26:00,
2013-03-02 07:41:00,22.8,12.1,30.33,NW,315,1.3,1.3,63,0.00,,,0.00,WUHU216WMR200,2013-03-02 13:41:00,
2013-03-02 07:56:00,23.2,11.8,30.33,NW,315,1.3,1.3,61,0.00,,,0.00,WUHU216WMR200,2013-03-02 13:56:00,
2013-03-02 08:11:00,23.9,12.1,30.33,NW,315,1.3,1.3,60,0.00,,,0.00,WUHU216WMR200,2013-03-02 14:11:00,
2013-03-02 08:26:00,25.2,12.9,30.33,NW,315,1.3,1.3,59,0.00,,,0.00,WUHU216WMR200,2013-03-02 14:26:00,
2013-03-02 08:41:00,26.1,13.4,30.33,NW,315,1.3,1.3,58,0.00,,,0.00,WUHU216WMR200,2013-03-02 14:41:00,
2013-03-02 08:56:00,27.0,13.4,30.33,NW,315,1.3,1.3,56,0.00,,,0.00,WUHU216WMR200,2013-03-02 14:56:00,
2013-03-02 09:11:00,28.6,14.0,30.30,NW,315,1.3,1.3,54,0.00,,,0.00,WUHU216WMR200,2013-03-02 15:11:00,
2013-03-02 09:26:00,32.7,17.9,30.30,NW,315,1.3,1.3,54,0.00,,,0.00,WUHU216WMR200,2013-03-02 15:26:00,
2013-03-02 09:41:00,37.4,19.9,30.30,NE,45,4.0,4.0,49,0.00,,,0.00,WUHU216WMR200,2013-03-02 15:41:00,
2013-03-02 09:56:00,38.5,18.9,30.30,NNW,337,3.4,3.4,45,0.00,,,0.00,WUHU216WMR200,2013-03-02 15:56:00,
2013-03-02 10:11:00,34.2,14.9,30.33,NW,315,0.9,0.9,45,0.00,,,0.00,WUHU216WMR200,2013-03-02 16:11:00,
2013-03-02 10:26:00,39.6,19.9,30.33,North,0,1.3,1.3,45,0.00,,,0.00,WUHU216WMR200,2013-03-02 16:26:00,
2013-03-02 10:41:00,41.5,19.9,30.30,North,0,3.6,3.6,42,0.00,,,0.00,WUHU216WMR200,2013-03-02 16:41:00,
2013-03-02 10:56:00,41.4,19.3,30.30,NNW,337,1.6,1.6,41,0.00,,,0.00,WUHU216WMR200,2013-03-02 16:56:00,
2013-03-02 11:11:00,41.5,18.8,30.30,NE,45,2.7,2.7,40,0.00,,,0.00,WUHU216WMR200,2013-03-02 17:11:00,
2013-03-02 11:26:00,43.9,20.3,30.30,SSE,157,3.1,3.1,39,0.00,,,0.00,WUHU216WMR200,2013-03-02 17:26:00,
2013-03-02 11:41:00,44.2,20.6,30.27,NNE,22,3.1,3.1,39,0.00,,,0.00,WUHU216WMR200,2013-03-02 17:41:00,
2013-03-02 11:56:00,44.6,20.3,30.27,NW,315,1.6,1.6,38,0.00,,,0.00,WUHU216WMR200,2013-03-02 17:56:00,
2013-03-02 12:11:00,45.3,21.0,30.30,NW,315,1.6,1.6,38,0.00,,,0.00,WUHU216WMR200,2013-03-02 18:11:00,
2013-03-02 12:26:00,46.9,22.4,30.30,NW,315,1.6,1.6,38,0.00,,,0.00,WUHU216WMR200,2013-03-02 18:26:00,
2013-03-02 12:41:00,45.1,20.8,30.30,NW,315,1.6,1.6,38,0.00,,,0.00,WUHU216WMR200,2013-03-02 18:41:00,
2013-03-02 12:56:00,43.0,18.9,30.30,NNE,22,5.8,5.8,38,0.00,,,0.00,WUHU216WMR200,2013-03-02 18:56:00,
2013-03-02 13:11:00,43.5,19.3,30.27,NW,315,2.5,2.5,38,0.00,,,0.00,WUHU216WMR200,2013-03-02 19:11:00,
2013-03-02 13:26:00,44.4,20.2,30.27,NNE,22,3.1,3.1,38,0.00,,,0.00,WUHU216WMR200,2013-03-02 19:26:00,
2013-03-02 13:41:00,43.7,19.5,30.24,NW,315,2.2,2.2,38,0.00,,,0.00,WUHU216WMR200,2013-03-02 19:41:00,
2013-03-02 13:56:00,44.4,20.2,30.24,NE,45,2.9,2.9,38,0.00,,,0.00,WUHU216WMR200,2013-03-02 19:56:00,
2013-03-02 14:11:00,44.2,20.0,30.24,NNW,337,1.3,1.3,38,0.00,,,0.00,WUHU216WMR200,2013-03-02 20:11:00,
2013-03-02 14:26:00,44.6,20.3,30.24,North,0,3.8,3.8,38,0.00,,,0.00,WUHU216WMR200,2013-03-02 20:26:00,
2013-03-02 14:41:00,43.7,19.5,30.24,NNE,22,2.0,2.0,38,0.00,,,0.00,WUHU216WMR200,2013-03-02 20:41:00,
2013-03-02 14:56:00,41.5,18.2,30.21,NNE,22,2.9,2.9,39,0.00,,,0.00,WUHU216WMR200,2013-03-02 20:56:00,
2013-03-02 15:11:00,41.0,17.7,30.21,NW,315,0.0,0.0,39,0.00,,,0.00,WUHU216WMR200,2013-03-02 21:11:00,
2013-03-02 15:26:00,39.2,16.7,30.24,North,0,1.1,1.1,40,0.00,,,0.00,WUHU216WMR200,2013-03-02 21:26:00,
2013-03-02 15:41:00,39.2,16.7,30.24,SW,225,1.6,1.6,40,0.00,,,0.00,WUHU216WMR200,2013-03-02 21:41:00,
2013-03-02 15:56:00,38.3,15.9,30.24,SSW,202,0.9,0.9,40,0.00,,,0.00,WUHU216WMR200,2013-03-02 21:56:00,
2013-03-02 16:11:00,38.3,16.5,30.21,South,180,1.1,1.1,41,0.00,,,0.00,WUHU216WMR200,2013-03-02 22:11:00,
2013-03-02 16:26:00,37.2,15.5,30.24,South,180,0.9,0.9,41,0.00,,,0.00,WUHU216WMR200,2013-03-02 22:26:00,
2013-03-02 16:41:00,37.4,15.6,30.24,East,90,1.3,1.3,41,0.00,,,0.00,WUHU216WMR200,2013-03-02 22:41:00,
2013-03-02 16:56:00,35.8,14.8,30.24,WNW,292,5.4,5.4,42,0.00,,,0.00,WUHU216WMR200,2013-03-02 22:56:00,
2013-03-02 17:11:00,35.1,14.1,30.24,South,180,1.3,1.3,42,0.00,,,0.00,WUHU216WMR200,2013-03-02 23:11:00,
2013-03-02 17:26:00,32.2,12.6,30.24,East,90,1.1,1.1,44,0.00,,,0.00,WUHU216WMR200,2013-03-02 23:26:00,
2013-03-02 17:41:00,30.6,11.6,30.21,NNE,22,0.0,0.0,45,0.00,,,0.00,WUHU216WMR200,2013-03-02 23:41:00,
2013-03-02 17:56:00,28.9,11.1,30.24,SW,225,0.0,0.0,47,0.00,,,0.00,WUHU216WMR200,2013-03-02 23:56:00,
2013-03-02 18:11:00,27.3,10.6,30.21,SW,225,0.0,0.0,49,0.00,,,0.00,WUHU216WMR200,2013-03-03 00:11:00,
2013-03-02 18:26:00,25.2,9.5,30.21,SW,225,0.0,0.0,51,0.00,,,0.00,WUHU216WMR200,2013-03-03 00:26:00,
2013-03-02 18:41:00,24.4,9.2,30.21,SW,225,0.0,0.0,52,0.00,,,0.00,WUHU216WMR200,2013-03-03 00:41:00,
2013-03-02 18:56:00,23.7,9.0,30.21,SW,225,0.0,0.0,53,0.00,,,0.00,WUHU216WMR200,2013-03-03 00:56:00,
2013-03-02 19:11:00,24.6,10.3,30.21,SW,225,0.0,0.0,54,0.00,,,0.00,WUHU216WMR200,2013-03-03 01:11:00,
2013-03-02 19:26:00,25.0,11.1,30.18,SW,225,0.0,0.0,55,0.00,,,0.00,WUHU216WMR200,2013-03-03 01:26:00,
2013-03-02 19:41:00,25.2,11.7,30.18,SW,225,0.0,0.0,56,0.00,,,0.00,WUHU216WMR200,2013-03-03 01:41:00,
2013-03-02 19:56:00,24.8,11.3,30.18,SW,225,0.0,0.0,56,0.00,,,0.00,WUHU216WMR200,2013-03-03 01:56:00,
2013-03-02 20:11:00,23.5,10.5,30.18,SW,225,0.0,0.0,57,0.00,,,0.00,WUHU216WMR200,2013-03-03 02:11:00,
2013-03-02 20:26:00,23.9,11.3,30.15,SW,225,0.0,0.0,58,0.00,,,0.00,WUHU216WMR200,2013-03-03 02:26:00,
2013-03-02 20:41:00,24.1,11.5,30.18,SW,225,0.0,0.0,58,0.00,,,0.00,WUHU216WMR200,2013-03-03 02:41:00,
2013-03-02 20:56:00,24.4,11.8,30.18,SW,225,0.0,0.0,58,0.00,,,0.00,WUHU216WMR200,2013-03-03 02:56:00,
2013-03-02 21:11:00,25.3,13.0,30.18,East,90,0.0,0.0,59,0.00,,,0.00,WUHU216WMR200,2013-03-03 03:11:00,
2013-03-02 21:26:00,25.9,14.3,30.18,SW,225,0.0,0.0,61,0.00,,,0.00,WUHU216WMR200,2013-03-03 03:26:00,
2013-03-02 21:41:00,26.1,14.9,30.18,SW,225,0.0,0.0,62,0.00,,,0.00,WUHU216WMR200,2013-03-03 03:41:00,
2013-03-02 21:56:00,26.2,15.4,30.18,SW,225,0.0,0.0,63,0.00,,,0.00,WUHU216WMR200,2013-03-03 03:56:00,
2013-03-02 22:11:00,26.2,15.4,30.18,WNW,292,0.0,0.0,63,0.00,,,0.00,WUHU216WMR200,2013-03-03 04:11:00,
2013-03-02 22:26:00,26.6,16.5,30.18,NW,315,0.0,0.0,65,0.00,,,0.00,WUHU216WMR200,2013-03-03 04:26:00,
2013-03-02 22:41:00,27.1,17.0,30.18,SW,225,1.6,1.6,65,0.00,,,0.00,WUHU216WMR200,2013-03-03 04:41:00,
2013-03-02 22:56:00,27.0,16.5,30.15,SE,135,0.0,0.0,64,0.00,,,0.00,WUHU216WMR200,2013-03-03 04:56:00,
2013-03-02 23:11:00,27.0,16.1,30.15,SW,225,0.0,0.0,63,0.00,,,0.00,WUHU216WMR200,2013-03-03 05:11:00,
2013-03-02 23:26:00,27.0,16.5,30.15,WSW,247,0.9,0.9,64,0.00,,,0.00,WUHU216WMR200,2013-03-03 05:26:00,
2013-03-02 23:41:00,26.8,16.3,30.15,WSW,247,0.0,0.0,64,0.00,,,0.00,WUHU216WMR200,2013-03-03 05:41:00,
2013-03-02 23:56:00,27.0,16.5,30.15,WSW,247,0.0,0.0,64,0.00,,,0.00,WUHU216WMR200,2013-03-03 05:56:00,